Vineland, Colorado
Current Conditions -  °F | °C
As of 12:53 PM on Friday 24 Oct 2014 (Local Time) from KPUB Reporting Station
Clear Clear  
Wind Chill: 82°   Ceiling: Unl
Heat Index: 82°   Visibility: 10mi
Dew Point: 19°   Wind: 3mph
Humidity: 10%   Direction: NA
Pressure: 30.14"   Gusts: NA
Location:  38.2482°N, 104.47°W
Report Text: KPUB 241853Z VRB03KT 10SM CLR 28/M07 A3014 RMK AO2 SLP161 T02781072
Loading
Personal Weather Stations






























Interactive Weather Map
Tropical Storm Tracking
New forecast layout! Learn more

10-Day Weather Forecast

Advertisements
Track Severe Weather on mobile